Time;durP1;ratioP1;P1;durP2;ratioP2;P2;SDS_P1;SDS_P2;PMS_P1;PMS_P2;Temp;Humidity;BMP_temperature;BMP_pressure;BME280_temperature;BME280_humidity;BME280_pressure;Samples;Min_cycle;Max_cycle;Signal;HPM_P1;HPM_P2
2022/11/05 00:10:53;;;;;;;21.57;10.77;;;10.70;99.30;;;;;;5065157;28;20446;-74
2022/11/05 00:19:05;;;;;;;20.50;11.70;;;10.70;99.30;;;;;;5067622;28;21008;-75
2022/11/05 00:26:58;;;;;;;22.73;11.53;;;10.60;99.90;;;;;;5066893;28;20496;-75
2022/11/05 00:29:24;;;;;;;21.80;11.57;;;10.70;99.90;;;;;;5064808;28;20749;-75
2022/11/05 00:31:49;;;;;;;20.03;12.37;;;10.70;99.40;;;;;;5063426;28;20186;-76
2022/11/05 00:34:15;;;;;;;24.80;12.30;;;10.70;99.30;;;;;;5059591;28;20197;-75
2022/11/05 00:36:40;;;;;;;22.13;12.63;;;10.60;99.40;;;;;;5061262;28;20192;-74
2022/11/05 00:39:06;;;;;;;17.77;11.60;;;10.60;99.90;;;;;;5061261;28;20334;-74
2022/11/05 00:41:31;;;;;;;23.33;12.60;;;10.70;99.90;;;;;;5061140;28;20243;-75
2022/11/05 00:46:41;;;;;;;18.30;12.10;;;10.80;99.90;;;;;;5062475;28;20238;-75
2022/11/05 00:52:54;;;;;;;22.10;12.27;;;10.80;99.90;;;;;;5061986;28;20210;-75
2022/11/05 00:54:36;;;;;;;16.20;10.20;;;10.70;99.90;;;;;;5065150;28;20936;-75
2022/11/05 00:57:01;;;;;;;29.83;11.90;;;10.80;99.90;;;;;;5068669;28;20766;-75
2022/11/05 00:59:27;;;;;;;23.90;12.60;;;10.80;99.90;;;;;;5058584;28;20533;-74
2022/11/05 01:01:52;;;;;;;20.43;12.80;;;10.70;99.90;;;;;;5059609;28;20657;-75
2022/11/05 01:04:18;;;;;;;23.00;12.23;;;10.70;99.90;;;;;;5062352;28;20646;-75
2022/11/05 01:06:44;;;;;;;24.90;12.30;;;10.70;99.90;;;;;;5063012;28;20241;-75
2022/11/05 01:09:09;;;;;;;22.13;11.77;;;10.70;99.90;;;;;;5060916;28;20550;-74
2022/11/05 01:11:35;;;;;;;20.93;11.90;;;10.60;99.90;;;;;;5061077;28;20188;-74
2022/11/05 01:14:07;;;;;;;20.43;11.77;;;10.60;99.90;;;;;;5067552;28;20215;-75
2022/11/05 01:16:33;;;;;;;18.37;11.83;;;10.70;99.90;;;;;;5061631;28;20427;-75
2022/11/05 01:19:00;;;;;;;26.70;11.57;;;11.40;99.90;;;;;;5068778;28;20658;-74
2022/11/05 01:21:25;;;;;;;19.43;11.50;;;10.70;99.90;;;;;;5066096;28;20183;-74
2022/11/05 01:23:52;;;;;;;20.60;11.87;;;10.80;99.90;;;;;;5069012;28;20820;-74
2022/11/05 01:26:17;;;;;;;19.67;12.10;;;10.60;99.90;;;;;;5060872;28;20176;-75
2022/11/05 01:28:43;;;;;;;20.00;11.30;;;10.80;99.90;;;;;;5063233;28;20426;-74
2022/11/05 01:31:08;;;;;;;21.43;11.30;;;10.90;99.90;;;;;;5065274;28;20175;-75
2022/11/05 01:33:34;;;;;;;19.90;11.47;;;10.90;99.90;;;;;;5063878;28;20193;-73
2022/11/05 01:35:59;;;;;;;16.40;10.03;;;10.90;99.90;;;;;;5064933;28;20233;-72
2022/11/05 01:38:25;;;;;;;16.87;11.37;;;10.80;99.90;;;;;;5064274;28;20168;-74
2022/11/05 01:40:50;;;;;;;21.97;10.60;;;10.80;99.90;;;;;;5062822;28;20579;-73
2022/11/05 01:43:19;;;;;;;14.07;10.23;;;10.80;99.90;;;;;;5060657;28;20222;-74
2022/11/05 01:45:48;;;;;;;16.17;9.43;;;10.80;99.90;;;;;;5065134;28;20701;-74
2022/11/05 01:48:19;;;;;;;15.50;9.57;;;10.80;99.90;;;;;;5063610;28;20467;-73
2022/11/05 01:50:59;;;;;;;16.73;9.07;;;10.80;99.90;;;;;;5061401;28;20600;-73
2022/11/05 01:53:44;;;;;;;16.83;9.23;;;10.90;99.90;;;;;;5061355;28;20870;-74
2022/11/05 01:56:16;;;;;;;17.77;9.97;;;10.90;99.90;;;;;;5065038;28;20446;-74
2022/11/05 01:58:53;;;;;;;15.27;9.20;;;10.80;99.90;;;;;;5063866;28;20442;-74
2022/11/05 02:01:19;;;;;;;17.90;10.27;;;10.80;99.90;;;;;;5062138;28;20431;-74
2022/11/05 02:03:47;;;;;;;15.90;9.63;;;10.80;99.90;;;;;;5057229;28;20450;-74
2022/11/05 02:06:15;;;;;;;15.80;9.70;;;10.80;99.90;;;;;;5058700;28;20165;-73
2022/11/05 02:09:02;;;;;;;14.60;9.27;;;10.70;99.90;;;;;;5060187;28;20790;-73
2022/11/05 02:11:28;;;;;;;14.33;9.83;;;10.80;99.90;;;;;;5062225;28;20514;-74
2022/11/05 02:13:54;;;;;;;18.70;9.83;;;10.80;99.90;;;;;;5066969;28;21033;-73
2022/11/05 02:16:49;;;;;;;20.57;10.70;;;10.80;99.90;;;;;;5062672;28;20178;-74
2022/11/05 02:19:52;;;;;;;15.10;9.70;;;10.80;99.90;;;;;;5071316;28;20560;-74
2022/11/05 02:22:57;;;;;;;20.43;10.37;;;10.70;99.90;;;;;;5066355;28;20579;-74
2022/11/05 02:25:41;;;;;;;16.53;9.37;;;10.70;99.90;;;;;;5051990;28;20450;-73
2022/11/05 02:28:15;;;;;;;14.23;8.90;;;10.70;99.90;;;;;;5062934;28;20435;-74
2022/11/05 02:30:55;;;;;;;27.57;10.00;;;10.80;99.90;;;;;;5059981;28;20611;-73
2022/11/05 02:33:32;;;;;;;20.00;10.37;;;10.70;99.90;;;;;;5057252;28;20450;-74
2022/11/05 02:36:19;;;;;;;18.93;10.33;;;10.70;99.90;;;;;;5066718;28;20540;-74
2022/11/05 02:39:28;;;;;;;19.47;9.60;;;10.70;99.90;;;;;;5052349;28;20887;-74
2022/11/05 02:42:16;;;;;;;15.03;9.60;;;10.60;99.90;;;;;;5057574;28;20423;-74
2022/11/05 02:44:53;;;;;;;17.10;9.47;;;10.70;99.90;;;;;;5052772;28;20501;-73
2022/11/05 02:47:41;;;;;;;13.90;8.70;;;10.70;99.90;;;;;;5063514;28;20861;-74
2022/11/05 02:50:40;;;;;;;18.07;9.30;;;10.80;99.90;;;;;;5055934;28;20964;-74
2022/11/05 02:53:13;;;;;;;20.63;9.77;;;10.70;99.90;;;;;;5059968;28;20446;-74
2022/11/05 02:56:17;;;;;;;13.63;8.77;;;10.70;99.90;;;;;;5060347;28;20485;-74
2022/11/05 02:58:42;;;;;;;18.70;8.97;;;10.70;99.90;;;;;;5060483;28;21170;-74
2022/11/05 03:01:11;;;;;;;13.20;8.53;;;10.60;99.90;;;;;;5062462;28;20423;-73
2022/11/05 03:03:46;;;;;;;17.20;8.20;;;10.60;99.90;;;;;;5056418;28;20193;-73
2022/11/05 03:06:39;;;;;;;11.73;8.20;;;10.50;99.90;;;;;;5064627;28;20788;-74
2022/11/05 03:09:10;;;;;;;15.40;8.30;;;10.50;99.90;;;;;;5055906;28;20427;-73
2022/11/05 03:12:03;;;;;;;18.90;9.50;;;10.50;99.90;;;;;;5061827;28;20423;-73
2022/11/05 03:14:59;;;;;;;12.60;8.73;;;10.60;99.90;;;;;;5067524;28;20456;-73
2022/11/05 03:17:37;;;;;;;13.20;8.43;;;10.60;99.90;;;;;;5058377;28;20804;-73
2022/11/05 03:20:18;;;;;;;14.77;8.73;;;10.50;99.90;;;;;;5070094;28;20825;-74
2022/11/05 03:22:53;;;;;;;22.40;9.43;;;10.60;99.90;;;;;;5062917;28;20537;-73
2022/11/05 03:25:27;;;;;;;16.70;8.60;;;10.60;99.90;;;;;;5059038;28;20426;-73
2022/11/05 03:27:57;;;;;;;18.40;9.17;;;10.60;99.90;;;;;;5059203;28;20431;-73
2022/11/05 03:30:24;;;;;;;17.50;8.70;;;10.60;99.90;;;;;;5065164;28;20531;-76
2022/11/05 03:32:56;;;;;;;14.83;9.33;;;10.50;99.90;;;;;;5063215;28;20479;-73
2022/11/05 03:35:30;;;;;;;19.80;9.50;;;10.50;99.90;;;;;;5060725;28;20465;-74
2022/11/05 03:38:01;;;;;;;12.40;8.50;;;10.50;99.90;;;;;;5061755;28;20458;-74
2022/11/05 03:40:32;;;;;;;15.70;9.03;;;10.40;99.90;;;;;;5065371;28;20553;-73
2022/11/05 03:42:59;;;;;;;14.97;8.93;;;10.40;99.90;;;;;;5066858;28;20558;-73
2022/11/05 03:45:29;;;;;;;14.40;9.17;;;10.40;99.90;;;;;;5068792;28;20415;-72
2022/11/05 03:47:58;;;;;;;27.30;10.30;;;10.40;99.90;;;;;;5065931;28;20793;-73
2022/11/05 03:50:32;;;;;;;23.30;9.87;;;10.40;99.90;;;;;;5063547;28;21153;-73
2022/11/05 03:53:06;;;;;;;17.67;9.40;;;10.40;99.90;;;;;;5060136;28;20509;-73
2022/11/05 03:55:43;;;;;;;13.83;9.40;;;10.40;99.90;;;;;;5067759;28;20423;-74
2022/11/05 03:58:10;;;;;;;18.70;8.77;;;10.50;99.90;;;;;;5064157;28;20529;-74
2022/11/05 04:00:37;;;;;;;18.00;9.40;;;10.60;99.90;;;;;;5063545;28;20463;-73
2022/11/05 04:03:02;;;;;;;15.17;9.60;;;10.60;99.90;;;;;;5066420;28;20454;-73
2022/11/05 04:05:28;;;;;;;19.93;10.80;;;10.50;99.90;;;;;;5062210;28;20480;-73
2022/11/05 04:13:24;;;;;;;25.33;11.80;;;11.40;99.90;;;;;;5068068;28;20469;-74
2022/11/05 04:18:46;;;;;;;24.20;12.57;;;10.50;99.90;;;;;;5000817;28;20860;-74
2022/11/05 04:24:08;;;;;;;30.50;12.70;;;10.40;99.90;;;;;;5065728;28;20484;-74
2022/11/05 04:26:44;;;;;;;30.90;13.47;;;10.50;99.90;;;;;;5067531;28;21034;-74
2022/11/05 04:31:55;;;;;;;28.40;13.23;;;10.40;99.90;;;;;;5060764;28;20497;-74
2022/11/05 04:34:23;;;;;;;28.43;14.10;;;10.40;99.90;;;;;;5069110;28;20458;-73
2022/11/05 04:36:50;;;;;;;31.57;13.70;;;10.50;99.90;;;;;;5063336;28;20187;-74
2022/11/05 04:39:17;;;;;;;26.90;12.93;;;10.50;99.90;;;;;;5066631;28;20446;-74
2022/11/05 04:41:46;;;;;;;28.90;14.10;;;10.50;99.90;;;;;;5060339;28;20823;-73
2022/11/05 04:44:12;;;;;;;29.93;14.00;;;10.60;99.90;;;;;;5064318;28;20447;-73
2022/11/05 04:46:37;;;;;;;32.03;13.53;;;10.50;99.90;;;;;;5058123;28;20457;-74
2022/11/05 04:49:03;;;;;;;25.80;12.63;;;10.40;99.90;;;;;;5062915;28;20196;-74
2022/11/05 04:51:29;;;;;;;28.93;12.20;;;10.40;99.90;;;;;;5061663;28;20242;-73
2022/11/05 04:53:54;;;;;;;28.60;12.53;;;10.40;99.90;;;;;;5059201;28;20204;-74
2022/11/05 04:56:22;;;;;;;19.80;10.73;;;10.40;99.90;;;;;;5065278;28;20188;-74
2022/11/05 04:58:48;;;;;;;19.93;10.70;;;10.40;99.90;;;;;;5065888;28;20177;-74
2022/11/05 05:01:16;;;;;;;17.47;10.00;;;10.30;99.90;;;;;;5061269;28;20518;-74
2022/11/05 05:03:42;;;;;;;18.77;10.03;;;10.30;99.90;;;;;;5057030;28;20447;-74
2022/11/05 05:06:08;;;;;;;18.97;9.57;;;10.30;99.90;;;;;;5059190;28;20710;-74
2022/11/05 05:08:34;;;;;;;15.07;8.97;;;10.20;99.90;;;;;;5060890;28;20267;-74
2022/11/05 05:11:04;;;;;;;17.03;8.90;;;10.20;99.90;;;;;;5053404;28;20554;-74
2022/11/05 05:13:30;;;;;;;14.77;8.83;;;10.30;99.90;;;;;;5052617;28;20213;-74
2022/11/05 05:15:56;;;;;;;16.73;9.50;;;10.30;99.90;;;;;;5063803;28;20484;-73
2022/11/05 05:18:21;;;;;;;16.60;9.20;;;10.30;99.90;;;;;;5063496;28;20550;-73
2022/11/05 05:23:31;;;;;;;15.03;8.93;;;10.20;99.90;;;;;;5061070;28;20330;-74
2022/11/05 05:25:59;;;;;;;17.30;9.70;;;10.20;99.90;;;;;;5053246;28;20431;-73
2022/11/05 05:28:26;;;;;;;16.73;8.00;;;10.30;99.90;;;;;;5054508;28;20161;-74
2022/11/05 05:30:51;;;;;;;11.63;7.43;;;10.30;99.90;;;;;;5063619;28;20430;-75
2022/11/05 05:33:17;;;;;;;13.73;6.70;;;10.30;99.90;;;;;;5066570;28;20455;-73
2022/11/05 05:35:42;;;;;;;10.43;6.30;;;10.30;99.40;;;;;;5059968;28;20196;-73
2022/11/05 05:38:08;;;;;;;9.33;5.80;;;10.20;99.10;;;;;;5062779;28;20668;-73
2022/11/05 05:40:33;;;;;;;11.40;5.83;;;10.20;99.00;;;;;;5057873;28;20203;-73
2022/11/05 05:42:59;;;;;;;10.30;6.63;;;10.20;99.00;;;;;;5064699;28;20208;-73
2022/11/05 05:45:24;;;;;;;10.20;5.90;;;10.20;99.10;;;;;;5059740;28;20177;-74
2022/11/05 05:47:50;;;;;;;9.50;5.50;;;10.20;99.10;;;;;;5063283;28;20221;-74
2022/11/05 05:50:15;;;;;;;12.50;6.83;;;10.20;99.10;;;;;;5066129;28;20188;-74
2022/11/05 05:52:41;;;;;;;13.40;7.50;;;10.20;99.00;;;;;;5060478;28;20208;-74
2022/11/05 05:55:07;;;;;;;13.47;7.27;;;10.10;94.50;;;;;;5063932;28;20238;-73
2022/11/05 05:57:33;;;;;;;10.97;7.00;;;10.10;99.00;;;;;;5068286;28;20259;-73
2022/11/05 06:00:00;;;;;;;10.30;6.50;;;10.10;99.00;;;;;;5067095;28;20204;-73
2022/11/05 06:02:28;;;;;;;10.27;6.60;;;10.10;99.00;;;;;;5061170;28;20524;-74
2022/11/05 06:04:53;;;;;;;12.40;6.93;;;10.20;99.10;;;;;;5060406;28;20837;-74
2022/11/05 06:07:19;;;;;;;15.40;7.03;;;10.10;99.00;;;;;;5057373;28;20459;-73
2022/11/05 06:09:45;;;;;;;11.40;6.80;;;10.20;99.20;;;;;;5061062;28;20259;-74
2022/11/05 06:12:11;;;;;;;11.60;7.10;;;10.20;97.90;;;;;;5066638;28;20177;-73
2022/11/05 06:14:36;;;;;;;11.33;7.23;;;10.20;99.10;;;;;;5065268;28;20500;-74
2022/11/05 06:17:02;;;;;;;14.37;7.00;;;10.20;99.10;;;;;;5066845;28;20173;-74
2022/11/05 06:19:28;;;;;;;10.80;7.20;;;10.10;99.90;;;;;;5061278;28;20224;-74
2022/11/05 06:21:53;;;;;;;12.77;6.73;;;10.10;95.70;;;;;;5072540;28;20588;-74
2022/11/05 06:24:19;;;;;;;14.77;7.37;;;10.00;99.00;;;;;;5065643;28;20200;-73
2022/11/05 06:26:44;;;;;;;11.33;7.67;;;10.10;99.00;;;;;;5060836;28;20176;-74
2022/11/05 06:29:10;;;;;;;13.87;7.60;;;10.10;99.00;;;;;;5062471;28;20176;-74
2022/11/05 06:31:35;;;;;;;10.60;6.70;;;10.50;99.30;;;;;;5064313;28;20310;-73
2022/11/05 06:34:01;;;;;;;12.17;6.47;;;10.20;95.30;;;;;;5065260;28;20199;-75
2022/11/05 06:36:27;;;;;;;11.57;6.70;;;10.10;93.40;;;;;;5065290;28;20555;-74
2022/11/05 06:38:52;;;;;;;11.83;6.77;;;10.00;91.50;;;;;;5063937;28;20176;-74
2022/11/05 06:41:18;;;;;;;11.40;7.13;;;10.00;92.90;;;;;;5061555;28;20173;-74
2022/11/05 06:43:43;;;;;;;14.27;6.77;;;9.90;89.30;;;;;;5066235;28;20249;-74
2022/11/05 06:46:10;;;;;;;11.40;5.97;;;9.90;95.90;;;;;;5069634;28;20309;-74
2022/11/05 06:48:36;;;;;;;11.83;7.00;;;10.00;93.60;;;;;;5067192;28;20195;-74
2022/11/05 06:51:03;;;;;;;16.57;8.10;;;10.00;94.30;;;;;;5068439;28;20454;-74
2022/11/05 06:53:28;;;;;;;12.47;7.17;;;10.00;96.40;;;;;;5069401;28;20527;-74
2022/11/05 06:55:54;;;;;;;10.23;6.23;;;10.00;95.10;;;;;;5071507;28;20560;-74
2022/11/05 06:58:19;;;;;;;10.97;6.10;;;10.00;90.80;;;;;;5064385;28;20330;-74
2022/11/05 07:00:45;;;;;;;11.13;6.20;;;10.00;96.20;;;;;;5068591;28;20291;-74
2022/11/05 07:03:11;;;;;;;13.77;6.57;;;10.00;96.30;;;;;;5060663;28;20200;-76
2022/11/05 07:05:48;;;;;;;15.30;6.97;;;10.10;92.60;;;;;;5067214;28;20461;-75
2022/11/05 07:08:14;;;;;;;10.80;6.60;;;10.10;92.80;;;;;;5067479;28;20183;-75
2022/11/05 07:10:39;;;;;;;10.40;6.30;;;10.10;94.10;;;;;;5068492;28;20998;-74
2022/11/05 07:13:05;;;;;;;8.97;5.53;;;10.20;97.00;;;;;;5064773;28;20478;-74
2022/11/05 07:15:30;;;;;;;8.80;5.30;;;10.30;91.80;;;;;;5062844;28;20189;-74
2022/11/05 07:17:58;;;;;;;9.97;6.00;;;10.30;86.60;;;;;;5068491;28;20164;-74
2022/11/05 07:20:23;;;;;;;7.33;5.30;;;10.30;89.10;;;;;;5076247;28;20200;-75
2022/11/05 07:22:49;;;;;;;8.13;5.13;;;10.30;76.90;;;;;;5061999;28;20526;-74
2022/11/05 07:25:15;;;;;;;8.67;5.80;;;10.20;75.60;;;;;;5056059;28;20178;-74
2022/11/05 07:27:40;;;;;;;12.33;6.40;;;10.30;82.70;;;;;;5065607;28;20686;-74
2022/11/05 07:30:08;;;;;;;10.10;4.80;;;10.30;77.90;;;;;;5064472;28;20169;-75
2022/11/05 07:32:39;;;;;;;11.33;5.60;;;10.30;76.60;;;;;;5056876;28;20284;-74
2022/11/05 07:35:07;;;;;;;9.73;5.37;;;10.30;74.10;;;;;;5059868;28;20430;-74
2022/11/05 07:37:32;;;;;;;7.40;5.43;;;10.30;74.70;;;;;;5065092;28;20482;-74
2022/11/05 07:39:58;;;;;;;9.37;5.63;;;10.30;75.40;;;;;;5067776;28;20457;-75
2022/11/05 07:42:23;;;;;;;8.20;5.10;;;10.40;81.00;;;;;;5066571;28;20188;-75
2022/11/05 07:44:49;;;;;;;7.47;5.40;;;10.40;75.20;;;;;;5069067;28;20210;-73
2022/11/05 07:47:14;;;;;;;7.10;4.50;;;10.40;74.20;;;;;;5066819;28;20173;-73
2022/11/05 07:49:40;;;;;;;7.60;4.30;;;10.40;81.60;;;;;;5062731;28;20673;-73
2022/11/05 07:52:05;;;;;;;7.90;4.60;;;10.50;72.50;;;;;;5060433;28;20181;-73
2022/11/05 07:54:31;;;;;;;9.50;5.10;;;10.50;74.60;;;;;;5066968;28;20192;-74
2022/11/05 07:56:56;;;;;;;9.83;4.83;;;10.50;67.50;;;;;;5071338;28;20204;-73
2022/11/05 07:59:22;;;;;;;9.73;5.00;;;10.50;69.00;;;;;;5063828;28;20193;-75
2022/11/05 08:01:47;;;;;;;14.20;6.50;;;10.50;62.50;;;;;;5064569;28;20439;-74
2022/11/05 08:04:13;;;;;;;9.70;6.33;;;10.50;67.50;;;;;;5064284;28;20253;-73
2022/11/05 08:06:38;;;;;;;9.60;6.10;;;10.60;72.80;;;;;;5063085;28;20181;-73
2022/11/05 08:09:04;;;;;;;10.23;5.70;;;11.70;66.50;;;;;;5066058;28;20215;-74
2022/11/05 08:11:30;;;;;;;11.03;6.03;;;10.70;69.20;;;;;;5070458;28;20226;-74
2022/11/05 08:13:56;;;;;;;9.33;5.77;;;10.70;62.20;;;;;;5066220;28;20250;-74
2022/11/05 08:16:21;;;;;;;11.33;5.43;;;10.70;55.70;;;;;;5051508;28;20949;-73
2022/11/05 08:18:47;;;;;;;11.70;5.90;;;10.70;61.80;;;;;;5070666;28;20410;-75
2022/11/05 08:21:13;;;;;;;11.40;6.07;;;10.70;48.50;;;;;;5067373;28;20485;-74
2022/11/05 08:23:38;;;;;;;10.67;6.10;;;10.80;58.40;;;;;;5063843;28;20192;-75
2022/11/05 08:26:04;;;;;;;12.80;5.77;;;10.80;59.10;;;;;;5069230;28;20164;-74
2022/11/05 08:28:29;;;;;;;11.23;5.80;;;10.90;50.10;;;;;;5070454;28;20176;-75
2022/11/05 08:30:56;;;;;;;9.67;6.10;;;11.10;48.30;;;;;;5062825;28;20183;-74
2022/11/05 08:33:23;;;;;;;11.27;5.80;;;11.20;44.30;;;;;;5058867;28;20275;-74
2022/11/05 08:35:49;;;;;;;9.43;5.70;;;11.30;44.40;;;;;;5052842;28;20446;-74
2022/11/05 08:38:17;;;;;;;10.17;5.97;;;11.20;38.90;;;;;;5065170;28;20435;-74
2022/11/05 08:40:45;;;;;;;10.27;5.77;;;11.20;38.90;;;;;;5068855;28;20466;-75
2022/11/05 08:43:12;;;;;;;9.30;5.60;;;11.30;39.00;;;;;;5065384;28;20434;-74
2022/11/05 08:45:38;;;;;;;8.50;5.13;;;11.00;38.90;;;;;;5070929;28;20407;-74
2022/11/05 08:48:05;;;;;;;9.20;5.80;;;11.30;39.00;;;;;;5065792;28;20426;-74
2022/11/05 08:50:32;;;;;;;7.57;5.33;;;11.30;39.20;;;;;;5059540;28;20436;-76
2022/11/05 08:52:58;;;;;;;10.20;5.90;;;11.40;39.00;;;;;;5066734;28;20462;-76
2022/11/05 08:55:24;;;;;;;9.73;5.27;;;11.40;38.90;;;;;;5070677;28;20437;-77
2022/11/05 08:58:01;;;;;;;14.07;8.70;;;11.40;39.00;;;;;;5062960;28;20646;-78
2022/11/05 09:00:28;;;;;;;22.13;11.17;;;11.60;39.20;;;;;;5063039;28;20477;-76
2022/11/05 09:02:54;;;;;;;16.00;9.10;;;11.70;28.70;;;;;;5058298;28;20453;-76
2022/11/05 09:05:20;;;;;;;10.13;5.80;;;11.90;29.80;;;;;;5056115;28;20435;-79
2022/11/05 09:07:45;;;;;;;10.20;6.33;;;11.90;19.60;;;;;;5065329;28;20208;-76
2022/11/05 09:10:11;;;;;;;14.70;6.30;;;11.90;24.00;;;;;;5060440;28;20183;-76
2022/11/05 09:12:37;;;;;;;9.17;5.60;;;12.00;25.30;;;;;;5061811;28;20200;-77
2022/11/05 09:15:03;;;;;;;7.30;5.07;;;12.20;20.70;;;;;;5064742;28;20218;-77
2022/11/05 09:17:28;;;;;;;11.20;5.40;;;12.20;15.50;;;;;;5068184;28;20208;-75
2022/11/05 09:19:54;;;;;;;8.40;4.87;;;12.30;8.00;;;;;;5075557;28;20208;-74
2022/11/05 09:22:19;;;;;;;14.70;5.70;;;12.20;8.10;;;;;;5059886;28;20582;-73
2022/11/05 09:24:45;;;;;;;8.40;5.63;;;12.20;16.20;;;;;;5061720;28;20181;-74
2022/11/05 09:27:13;;;;;;;9.13;5.80;;;12.80;5.80;;;;;;5059919;28;20460;-74
2022/11/05 09:29:39;;;;;;;9.70;5.23;;;12.40;4.90;;;;;;5057236;28;20188;-74
2022/11/05 09:32:06;;;;;;;11.83;5.87;;;12.50;4.80;;;;;;5055292;28;20430;-74
2022/11/05 09:34:32;;;;;;;8.17;5.40;;;12.50;3.10;;;;;;5066661;28;20513;-74
2022/11/05 09:36:58;;;;;;;8.93;5.37;;;12.70;3.20;;;;;;5061461;28;20511;-74
2022/11/05 09:39:24;;;;;;;13.00;6.37;;;12.70;1.00;;;;;;5058762;28;20306;-74
2022/11/05 09:41:52;;;;;;;8.20;5.97;;;12.60;1.00;;;;;;5056433;28;20953;-73
2022/11/05 09:44:29;;;;;;;12.07;5.80;;;12.50;1.00;;;;;;5065328;28;20203;-74
2022/11/05 09:46:59;;;;;;;10.00;6.60;;;12.60;1.50;;;;;;5064672;28;20419;-74
2022/11/05 09:49:38;;;;;;;10.13;5.63;;;12.70;1.60;;;;;;5073433;28;20707;-75
2022/11/05 09:52:10;;;;;;;9.77;6.00;;;12.90;1.00;;;;;;5048569;28;20418;-75
2022/11/05 09:54:36;;;;;;;11.43;6.03;;;13.00;1.00;;;;;;5050259;28;20418;-74
2022/11/05 09:57:05;;;;;;;8.63;5.57;;;13.00;1.00;;;;;;5066692;28;20426;-74
2022/11/05 09:59:43;;;;;;;12.30;6.70;;;13.00;1.00;;;;;;5070347;28;20991;-75
2022/11/05 10:02:25;;;;;;;12.00;6.50;;;13.00;1.00;;;;;;5070237;28;20679;-74
2022/11/05 10:04:56;;;;;;;13.33;7.17;;;13.00;1.00;;;;;;5070078;28;20905;-74
2022/11/05 10:07:27;;;;;;;11.53;7.03;;;13.00;1.00;;;;;;5050333;28;20407;-74
2022/11/05 10:10:06;;;;;;;15.53;7.07;;;13.00;1.00;;;;;;5048534;28;20465;-74
2022/11/05 10:12:42;;;;;;;10.10;7.17;;;13.10;1.00;;;;;;5049828;28;20439;-75
2022/11/05 10:15:28;;;;;;;11.73;8.23;;;13.10;1.00;;;;;;5051432;28;20530;-74
2022/11/05 10:18:03;;;;;;;9.43;7.03;;;13.10;1.00;;;;;;5072465;28;20419;-74
2022/11/05 10:20:34;;;;;;;13.33;7.50;;;13.00;1.00;;;;;;5081878;28;20484;-74
2022/11/05 10:23:09;;;;;;;12.23;7.33;;;13.10;1.00;;;;;;5084500;28;20443;-74
2022/11/05 10:25:40;;;;;;;12.00;7.70;;;13.10;1.00;;;;;;5060461;28;20415;-73
2022/11/05 10:28:07;;;;;;;15.53;8.07;;;13.00;1.00;;;;;;5066876;28;20879;-74
2022/11/05 10:30:33;;;;;;;11.00;7.63;;;13.20;1.00;;;;;;5066724;28;21005;-74
2022/11/05 10:33:03;;;;;;;10.70;7.47;;;13.30;1.00;;;;;;5059737;28;20447;-75
2022/11/05 10:35:34;;;;;;;11.20;7.40;;;13.70;1.00;;;;;;5071698;28;20448;-75
2022/11/05 10:38:01;;;;;;;13.47;8.47;;;14.30;1.00;;;;;;5061532;28;20418;-74
2022/11/05 10:40:46;;;;;;;14.20;7.90;;;14.90;1.00;;;;;;5064983;28;20871;-74
2022/11/05 10:43:30;;;;;;;17.77;7.80;;;15.80;1.00;;;;;;5059545;28;20497;-75
2022/11/05 10:46:17;;;;;;;10.87;7.50;;;17.20;1.00;;;;;;5062463;28;20757;-75
2022/11/05 10:48:59;;;;;;;14.13;7.80;;;17.80;1.00;;;;;;5059520;28;20470;-75
2022/11/05 10:51:26;;;;;;;15.87;10.30;;;17.90;1.00;;;;;;5057635;28;20438;-75
2022/11/05 10:53:59;;;;;;;17.73;10.37;;;17.90;1.00;;;;;;5065193;28;20848;-74
2022/11/05 10:56:34;;;;;;;17.00;9.40;;;18.00;1.00;;;;;;5060412;28;20467;-75
2022/11/05 10:59:02;;;;;;;14.95;9.10;;;18.00;1.00;;;;;;5064409;28;20414;-75
2022/11/05 11:01:29;;;;;;;16.07;9.80;;;17.90;1.00;;;;;;5059673;28;20467;-75
2022/11/05 11:04:24;;;;;;;13.20;8.70;;;17.90;1.00;;;;;;5066184;28;20605;-75
2022/11/05 11:06:53;;;;;;;17.33;8.63;;;17.80;1.00;;;;;;5052380;28;20497;-75
2022/11/05 11:09:25;;;;;;;10.80;8.20;;;17.70;1.00;;;;;;5065656;28;20482;-75
2022/11/05 11:12:06;;;;;;;16.47;10.23;;;17.80;1.00;;;;;;5057419;28;20435;-75
2022/11/05 11:14:33;;;;;;;18.13;9.17;;;17.30;1.00;;;;;;5069381;28;20411;-75
2022/11/05 11:17:35;;;;;;;13.30;10.00;;;16.70;1.00;;;;;;5064349;28;20495;-74
2022/11/05 11:20:26;;;;;;;13.47;7.50;;;15.90;1.00;;;;;;5035557;28;20459;-74
2022/11/05 11:23:01;;;;;;;11.30;7.97;;;15.50;1.00;;;;;;5063536;28;20431;-74
2022/11/05 11:25:51;;;;;;;14.70;7.80;;;16.60;1.00;;;;;;5060307;28;20434;-75
2022/11/05 11:28:23;;;;;;;11.67;8.37;;;20.10;1.00;;;;;;5068793;28;20171;-74
2022/11/05 11:31:03;;;;;;;14.17;7.90;;;21.60;1.00;;;;;;5064322;28;20466;-75
2022/11/05 11:33:30;;;;;;;15.17;8.50;;;21.80;1.00;;;;;;5071467;28;20438;-74
2022/11/05 11:35:56;;;;;;;15.20;8.63;;;23.10;1.00;;;;;;5064698;28;20427;-75
2022/11/05 11:38:23;;;;;;;10.70;6.63;;;25.50;1.00;;;;;;5067838;28;20497;-75
2022/11/05 11:40:49;;;;;;;17.00;8.60;;;26.40;1.00;;;;;;5071981;28;20488;-75
2022/11/05 11:43:30;;;;;;;13.43;7.27;;;25.60;1.00;;;;;;5066465;28;20445;-75
2022/11/05 11:45:56;;;;;;;9.27;7.50;;;23.20;1.00;;;;;;5056393;28;20431;-77
2022/11/05 11:48:29;;;;;;;11.77;8.20;;;21.70;1.00;;;;;;5072445;28;20406;-75
2022/11/05 11:50:57;;;;;;;10.90;7.10;;;22.80;1.00;;;;;;5069190;28;20651;-75
2022/11/05 11:53:27;;;;;;;9.13;7.00;;;24.90;1.00;;;;;;5069338;28;20450;-75
2022/11/05 11:56:02;;;;;;;10.67;7.10;;;26.00;1.00;;;;;;5066551;28;20454;-75
2022/11/05 11:58:38;;;;;;;10.03;7.13;;;24.70;1.00;;;;;;5060997;28;20506;-75
2022/11/05 12:01:31;;;;;;;12.47;7.00;;;22.50;1.00;;;;;;5064383;28;20450;-75
2022/11/05 12:04:12;;;;;;;10.63;6.50;;;20.40;1.00;;;;;;5068078;28;20450;-75
2022/11/05 12:07:02;;;;;;;12.47;7.57;;;19.40;1.00;;;;;;5067859;28;20728;-75
2022/11/05 12:09:33;;;;;;;10.47;6.90;;;18.30;1.00;;;;;;5058183;28;20433;-74
2022/11/05 12:12:12;;;;;;;9.53;7.20;;;17.30;1.00;;;;;;5063322;28;20431;-75
2022/11/05 12:14:50;;;;;;;13.00;7.70;;;16.70;1.00;;;;;;5062444;28;20521;-75
2022/11/05 12:17:49;;;;;;;16.20;7.67;;;16.40;1.00;;;;;;5056892;28;20432;-75
2022/11/05 12:20:20;;;;;;;10.23;6.43;;;16.10;1.00;;;;;;5055034;28;20901;-74
2022/11/05 12:23:11;;;;;;;10.03;5.20;;;16.00;1.00;;;;;;5067522;28;20462;-75
2022/11/05 12:26:04;;;;;;;7.87;5.20;;;16.60;1.00;;;;;;5065847;28;20464;-74
2022/11/05 12:28:55;;;;;;;7.37;4.53;;;17.70;1.00;;;;;;5068684;28;20405;-75
2022/11/05 12:32:01;;;;;;;7.83;4.50;;;20.10;1.00;;;;;;5056864;28;20435;-75
2022/11/05 12:34:49;;;;;;;10.10;4.40;;;22.40;1.00;;;;;;5063621;28;20454;-75
2022/11/05 12:37:20;;;;;;;6.50;4.20;;;22.00;1.00;;;;;;5066691;28;20422;-75
2022/11/05 12:39:57;;;;;;;7.87;3.73;;;22.60;1.00;;;;;;5066801;28;20462;-75
2022/11/05 12:42:38;;;;;;;6.70;4.00;;;24.50;1.00;;;;;;5068050;28;20437;-75
2022/11/05 12:45:35;;;;;;;7.03;4.90;;;25.90;1.00;;;;;;5051719;28;20402;-75
2022/11/05 12:48:28;;;;;;;6.10;3.40;;;27.00;1.00;;;;;;5059475;28;20450;-75
2022/11/05 12:51:20;;;;;;;6.53;3.00;;;27.00;1.00;;;;;;5068973;28;20446;-77
2022/11/05 12:54:03;;;;;;;5.90;2.90;;;25.90;1.00;;;;;;5069640;28;20465;-75
2022/11/05 12:56:47;;;;;;;5.80;3.33;;;24.50;1.00;;;;;;5064774;28;20848;-76
2022/11/05 12:59:36;;;;;;;6.80;4.33;;;22.50;1.00;;;;;;5064896;28;20414;-75
2022/11/05 13:02:19;;;;;;;11.20;7.20;;;20.80;1.00;;;;;;5062891;28;20434;-77
2022/11/05 13:04:56;;;;;;;10.23;4.80;;;19.70;1.00;;;;;;5062298;28;20427;-75
2022/11/05 13:07:31;;;;;;;8.30;4.67;;;19.20;1.00;;;;;;5066666;28;20451;-75
2022/11/05 13:10:39;;;;;;;6.57;4.40;;;18.60;1.00;;;;;;5065044;28;20541;-75
2022/11/05 13:13:24;;;;;;;6.50;4.50;;;18.20;1.00;;;;;;5062917;28;20455;-75
2022/11/05 13:15:56;;;;;;;9.10;4.70;;;17.80;1.00;;;;;;5064056;28;20470;-74
2022/11/05 13:18:40;;;;;;;10.50;4.70;;;17.60;1.00;;;;;;5077939;28;20410;-73
2022/11/05 13:21:08;;;;;;;7.13;4.57;;;17.00;1.00;;;;;;5074162;28;20978;-73
2022/11/05 13:23:50;;;;;;;6.90;4.27;;;17.10;1.00;;;;;;5065214;28;20448;-75
2022/11/05 13:26:38;;;;;;;8.87;3.93;;;16.90;1.00;;;;;;5068268;28;20429;-74
2022/11/05 13:29:13;;;;;;;7.83;3.40;;;16.90;1.00;;;;;;5067413;28;20415;-75
2022/11/05 13:31:47;;;;;;;5.77;3.10;;;16.90;1.00;;;;;;5060654;28;20429;-75
2022/11/05 13:34:13;;;;;;;4.73;3.10;;;16.90;1.00;;;;;;5063304;28;20451;-75
2022/11/05 13:39:41;;;;;;;5.80;3.40;;;16.30;1.00;;;;;;5069956;28;20206;-75
2022/11/05 13:42:38;;;;;;;11.03;3.60;;;16.20;1.00;;;;;;5062282;28;20409;-74
2022/11/05 13:45:19;;;;;;;4.00;3.00;;;16.10;1.00;;;;;;5050526;28;20429;-75
2022/11/05 13:48:09;;;;;;;4.07;2.97;;;16.00;1.00;;;;;;5069819;28;20421;-74
2022/11/05 13:51:33;;;;;;;6.67;3.20;;;15.90;1.00;;;;;;5071953;28;20887;-75